createdAt,value
2019-04-23T00:02:39.503Z,9.70
2019-04-23T00:05:08.304Z,9.60
2019-04-23T00:10:19.266Z,9.50
2019-04-23T00:15:12.009Z,9.50
2019-04-23T00:17:41.914Z,9.50
2019-04-23T00:20:15.808Z,9.40
2019-04-23T00:22:51.762Z,9.50
2019-04-23T00:25:45.527Z,9.50
2019-04-23T00:28:06.697Z,9.50
2019-04-23T00:33:05.329Z,9.50
2019-04-23T00:35:38.923Z,9.40
2019-04-23T00:38:13.965Z,9.30
2019-04-23T00:40:40.739Z,9.40
2019-04-23T00:43:09.003Z,9.50
2019-04-23T00:45:44.251Z,9.40
2019-04-23T00:48:14.905Z,9.30
2019-04-23T00:50:48.059Z,9.30
2019-04-23T00:53:10.979Z,9.30
2019-04-23T00:55:44.747Z,9.40
2019-04-23T00:58:16.875Z,9.50
2019-04-23T01:03:15.436Z,9.50
2019-04-23T01:05:41.068Z,9.50
2019-04-23T01:10:59.804Z,9.50
2019-04-23T01:13:32.645Z,9.50
2019-04-23T01:15:52.370Z,9.40
2019-04-23T01:18:38.058Z,9.40
2019-04-23T01:20:53.458Z,9.40
2019-04-23T01:23:40.447Z,9.50
2019-04-23T01:26:26.541Z,9.40
2019-04-23T01:29:01.608Z,9.50
2019-04-23T01:31:47.931Z,9.30
2019-04-23T01:33:59.450Z,9.30
2019-04-23T01:36:32.712Z,9.30
2019-04-23T01:39:03.699Z,9.40
2019-04-23T01:41:33.326Z,9.30
2019-04-23T01:43:54.895Z,9.20
2019-04-23T01:46:35.559Z,9.20
2019-04-23T01:49:09.543Z,9.20
2019-04-23T01:51:42.350Z,9.20
2019-04-23T01:54:06.945Z,9.20
2019-04-23T01:56:36.047Z,9.10
2019-04-23T02:01:43.290Z,9.20
2019-04-23T02:04:10.120Z,9.30
2019-04-23T02:06:38.643Z,9.30
2019-04-23T02:09:10.981Z,9.30
2019-04-23T02:11:37.803Z,9.20
2019-04-23T02:14:18.263Z,9.20
2019-04-23T02:22:01.127Z,9.00
2019-04-23T02:24:39.727Z,8.90
2019-04-23T02:26:57.551Z,8.80
2019-04-23T02:29:43.527Z,8.70
2019-04-23T02:32:09.099Z,8.70
2019-04-23T02:37:16.001Z,8.70
2019-04-23T02:39:55.404Z,8.70
2019-04-23T02:42:30.149Z,8.70
2019-04-23T02:44:38.999Z,8.60
2019-04-23T02:47:17.338Z,8.60
2019-04-23T02:50:01.521Z,8.60
2019-04-23T02:52:18.280Z,8.50
2019-04-23T02:54:56.714Z,8.50
2019-04-23T03:07:22.302Z,8.40
2019-04-23T03:12:27.229Z,8.40
2019-04-23T03:17:15.028Z,8.40
2019-04-23T03:20:10.686Z,8.40
2019-04-23T03:22:42.019Z,8.40
2019-04-23T03:25:05.322Z,8.40
2019-04-23T03:27:37.214Z,8.30
2019-04-23T03:30:06.117Z,8.30
2019-04-23T03:40:07.712Z,8.30
2019-04-23T03:47:37.601Z,8.30
2019-04-23T03:50:15.331Z,8.30
2019-04-23T03:57:52.263Z,8.30
2019-04-23T04:00:35.241Z,8.30
2019-04-23T04:05:27.297Z,8.20
2019-04-23T04:08:02.418Z,8.20
2019-04-23T04:12:41.431Z,8.10
2019-04-23T04:15:33.233Z,8.10
2019-04-23T04:17:50.304Z,8.20
2019-04-23T04:20:29.259Z,8.20
2019-04-23T04:25:26.982Z,8.20
2019-04-23T04:30:25.388Z,8.10
2019-04-23T04:32:56.556Z,8.10
2019-04-23T04:43:06.734Z,8.20
2019-04-23T04:47:44.547Z,8.20
2019-04-23T04:50:14.979Z,8.30
2019-04-23T04:58:02.925Z,8.30
2019-04-23T05:00:32.939Z,8.40
2019-04-23T05:03:22.160Z,8.40
2019-04-23T05:05:58.337Z,8.40
2019-04-23T05:10:34.682Z,8.50
2019-04-23T05:13:11.788Z,8.60
2019-04-23T05:15:25.778Z,8.50
2019-04-23T05:23:15.816Z,8.70
2019-04-23T05:25:42.915Z,8.70
2019-04-23T05:28:12.471Z,8.70
2019-04-23T05:33:13.051Z,8.80
2019-04-23T05:36:04.307Z,8.90
2019-04-23T05:38:18.326Z,9.10
2019-04-23T05:40:49.808Z,9.20
2019-04-23T05:43:12.638Z,9.40
2019-04-23T05:45:39.992Z,9.50
2019-04-23T05:50:52.725Z,9.70
2019-04-23T05:53:18.941Z,9.70
2019-04-23T05:55:51.515Z,9.80
2019-04-23T06:00:58.107Z,9.80
2019-04-23T06:06:01.201Z,9.90
2019-04-23T06:08:26.928Z,10.00
2019-04-23T06:10:57.139Z,10.00
2019-04-23T06:13:26.930Z,10.10
2019-04-23T06:15:50.372Z,10.10
2019-04-23T06:20:55.526Z,10.20
2019-04-23T06:23:30.265Z,10.30
2019-04-23T06:28:27.608Z,10.30
2019-04-23T06:33:31.019Z,10.30
2019-04-23T06:35:58.363Z,10.30
2019-04-23T06:38:40.169Z,10.30
2019-04-23T06:41:00.798Z,10.40
2019-04-23T06:43:37.555Z,10.40
2019-04-23T06:46:03.630Z,10.50
2019-04-23T06:48:35.556Z,10.50
2019-04-23T06:51:07.942Z,10.50
2019-04-23T06:53:30.674Z,10.50
2019-04-23T06:56:06.730Z,10.60
2019-04-23T07:01:08.209Z,10.70
2019-04-23T07:03:38.338Z,10.70
2019-04-23T07:16:12.865Z,10.80
2019-04-23T07:18:43.515Z,10.90
2019-04-23T07:21:18.336Z,10.90
2019-04-23T07:23:54.545Z,10.90
2019-04-23T07:26:26.053Z,11.10
2019-04-23T07:28:49.812Z,11.10
2019-04-23T07:31:24.265Z,11.10
2019-04-23T07:33:54.722Z,11.20
2019-04-23T07:36:24.336Z,11.30
2019-04-23T07:41:32.606Z,11.30
2019-04-23T07:44:14.187Z,11.40
2019-04-23T07:46:40.762Z,11.50
2019-04-23T07:49:06.617Z,11.50
2019-04-23T07:51:39.350Z,11.40
2019-04-23T07:54:08.046Z,11.50
2019-04-23T07:56:37.248Z,11.50
2019-04-23T07:59:16.079Z,11.60
2019-04-23T08:01:39.240Z,11.60
2019-04-23T08:04:08.533Z,11.60
2019-04-23T08:06:42.055Z,11.60
2019-04-23T08:09:08.829Z,11.60
2019-04-23T08:11:40.072Z,11.60
2019-04-23T08:14:08.644Z,11.70
2019-04-23T08:16:38.370Z,11.70
2019-04-23T08:19:14.012Z,11.70
2019-04-23T08:21:46.387Z,11.80
2019-04-23T08:24:40.840Z,11.90
2019-04-23T08:27:02.758Z,11.90
2019-04-23T08:29:43.890Z,11.90
2019-04-23T08:32:11.800Z,12.00
2019-04-23T08:37:10.751Z,12.10
2019-04-23T08:42:28.808Z,12.10
2019-04-23T08:44:44.990Z,12.10
2019-04-23T08:47:27.057Z,12.10
2019-04-23T08:52:21.549Z,12.20
2019-04-23T08:54:54.816Z,12.20
2019-04-23T08:57:15.586Z,12.20
2019-04-23T09:04:55.357Z,12.20
2019-04-23T09:07:20.563Z,12.20
2019-04-23T09:09:53.827Z,12.20
2019-04-23T09:12:27.001Z,12.20
2019-04-23T09:14:51.031Z,12.20
2019-04-23T09:20:08.546Z,12.30
2019-04-23T09:22:29.606Z,12.30
2019-04-23T09:24:48.848Z,12.30
2019-04-23T09:32:33.551Z,12.40
2019-04-23T09:35:26.048Z,12.50
2019-04-23T09:37:49.227Z,12.50
2019-04-23T09:43:08.110Z,12.40
2019-04-23T09:45:42.381Z,12.30
2019-04-23T09:48:04.365Z,12.40
2019-04-23T09:50:46.420Z,12.40
2019-04-23T09:53:24.140Z,12.50
2019-04-23T09:58:13.484Z,12.40
2019-04-23T10:03:04.960Z,12.30
2019-04-23T10:05:31.370Z,12.40
2019-04-23T10:08:02.911Z,12.40
2019-04-23T10:10:22.817Z,12.30
2019-04-23T10:12:51.743Z,12.40
2019-04-23T10:15:26.228Z,12.40
2019-04-23T10:17:52.121Z,12.30
2019-04-23T10:20:22.477Z,12.30
2019-04-23T10:22:52.602Z,12.40
2019-04-23T10:25:22.749Z,12.40
2019-04-23T10:27:57.004Z,12.50
2019-04-23T10:30:23.758Z,12.50
2019-04-23T10:32:53.645Z,12.50
2019-04-23T10:35:35.293Z,12.40
2019-04-23T10:38:02.100Z,12.30
2019-04-23T10:40:30.242Z,12.50
2019-04-23T10:42:56.087Z,12.60
2019-04-23T10:45:53.148Z,12.60
2019-04-23T10:49:25.881Z,12.70
2019-04-23T10:51:30.674Z,12.70
2019-04-23T10:54:24.706Z,12.60
2019-04-23T10:56:45.066Z,12.70
2019-04-23T10:59:12.185Z,12.50
2019-04-23T11:01:45.308Z,12.50
2019-04-23T11:04:36.012Z,12.50
2019-04-23T11:06:47.226Z,12.40
2019-04-23T11:09:34.363Z,12.40
2019-04-23T11:11:53.668Z,12.40
2019-04-23T11:14:25.781Z,12.50
2019-04-23T11:17:07.677Z,12.50
2019-04-23T11:19:25.717Z,12.50
2019-04-23T11:22:04.321Z,12.70
2019-04-23T11:26:55.871Z,12.90
2019-04-23T11:32:31.715Z,13.00
2019-04-23T11:34:47.867Z,13.00
2019-04-23T11:37:12.660Z,13.00
2019-04-23T11:39:32.436Z,13.10
2019-04-23T11:44:40.102Z,12.90
2019-04-23T11:47:08.616Z,12.90
2019-04-23T11:52:19.225Z,12.80
2019-04-23T11:54:30.623Z,12.90
2019-04-23T11:57:22.259Z,12.90
2019-04-23T12:02:05.419Z,13.20
2019-04-23T12:04:48.017Z,13.30
2019-04-23T12:07:18.732Z,13.30
2019-04-23T12:12:23.910Z,13.30
2019-04-23T12:14:51.297Z,13.40
2019-04-23T12:20:00.107Z,13.50
2019-04-23T12:25:06.540Z,13.60
2019-04-23T12:27:30.567Z,13.40
2019-04-23T12:29:52.464Z,13.40
2019-04-23T12:37:40.699Z,13.10
2019-04-23T12:40:15.714Z,13.00
2019-04-23T12:42:58.699Z,13.10
2019-04-23T12:45:25.100Z,13.20
2019-04-23T12:47:49.899Z,13.20
2019-04-23T12:50:38.322Z,13.00
2019-04-23T12:52:47.668Z,13.00
2019-04-23T12:57:46.919Z,13.00
2019-04-23T13:00:22.471Z,13.00
2019-04-23T13:02:48.490Z,12.90
2019-04-23T13:05:15.828Z,12.90
2019-04-23T13:07:54.041Z,12.90
2019-04-23T13:10:22.279Z,13.00
2019-04-23T13:12:50.313Z,13.10
2019-04-23T13:15:22.727Z,13.30
2019-04-23T13:17:54.273Z,13.20
2019-04-23T13:20:23.578Z,13.20
2019-04-23T13:22:55.717Z,13.00
2019-04-23T13:25:53.909Z,13.00
2019-04-23T13:30:46.205Z,12.80
2019-04-23T13:33:26.774Z,12.80
2019-04-23T13:35:53.451Z,12.80
2019-04-23T13:40:57.186Z,12.70
2019-04-23T13:43:29.957Z,12.70
2019-04-23T13:48:15.104Z,12.60
2019-04-23T13:53:38.337Z,12.90
2019-04-23T13:55:53.215Z,12.90
2019-04-23T13:58:23.231Z,12.90
2019-04-23T14:03:30.247Z,12.90
2019-04-23T14:06:18.128Z,12.90
2019-04-23T14:08:47.302Z,13.00
2019-04-23T14:11:19.728Z,12.60
2019-04-23T14:13:55.272Z,12.70
2019-04-23T14:21:22.001Z,12.60
2019-04-23T14:31:19.884Z,12.60
2019-04-23T14:33:58.392Z,12.60
2019-04-23T14:36:19.471Z,12.70
2019-04-23T14:43:56.042Z,12.70
2019-04-23T14:48:51.711Z,12.80
2019-04-23T14:53:48.113Z,12.60
2019-04-23T14:56:20.144Z,12.70
2019-04-23T15:03:50.620Z,12.80
2019-04-23T15:06:37.319Z,12.80
2019-04-23T15:11:36.906Z,12.50
2019-04-23T15:14:03.548Z,12.70
2019-04-23T15:16:31.604Z,12.70
2019-04-23T15:21:53.740Z,12.90
2019-04-23T15:24:14.131Z,12.80
2019-04-23T15:28:55.725Z,12.80
2019-04-23T15:34:14.151Z,13.10
2019-04-23T15:44:14.881Z,12.80
2019-04-23T15:46:47.457Z,12.80
2019-04-23T15:51:54.188Z,12.50
2019-04-23T15:54:22.541Z,12.50
2019-04-23T15:56:50.053Z,12.50
2019-04-23T16:01:39.495Z,12.60
2019-04-23T16:03:51.711Z,12.70
2019-04-23T16:06:24.565Z,12.60
2019-04-23T16:09:15.485Z,12.70
2019-04-23T16:11:59.602Z,12.70
2019-04-23T16:16:51.593Z,12.90
2019-04-23T16:22:04.560Z,12.90
2019-04-23T16:24:26.670Z,12.80
2019-04-23T16:27:09.309Z,12.80
2019-04-23T16:32:14.889Z,12.70
2019-04-23T16:34:59.386Z,12.70
2019-04-23T16:37:24.966Z,12.80
2019-04-23T16:39:56.563Z,12.80
2019-04-23T16:42:24.850Z,12.80
2019-04-23T16:45:11.041Z,12.70
2019-04-23T16:47:26.440Z,12.70
2019-04-23T16:52:24.478Z,12.60
2019-04-23T16:54:54.836Z,12.60
2019-04-23T16:57:29.098Z,12.50
2019-04-23T17:02:24.614Z,12.50
2019-04-23T17:05:02.886Z,12.50
2019-04-23T17:07:21.067Z,12.50
2019-04-23T17:10:08.114Z,12.50
2019-04-23T17:12:16.617Z,12.50
2019-04-23T17:15:02.748Z,12.40
2019-04-23T17:17:27.370Z,12.30
2019-04-23T17:20:02.689Z,12.10
2019-04-23T17:22:24.685Z,12.00
2019-04-23T17:25:10.219Z,11.90
2019-04-23T17:27:29.790Z,11.80
2019-04-23T17:30:09.281Z,11.80
2019-04-23T17:32:35.787Z,11.80
2019-04-23T17:35:17.395Z,11.70
2019-04-23T17:37:40.997Z,11.60
2019-04-23T17:40:17.695Z,11.70
2019-04-23T17:42:52.610Z,11.80
2019-04-23T17:48:04.072Z,11.50
2019-04-23T17:52:56.292Z,11.50
2019-04-23T17:55:22.373Z,11.40
2019-04-23T17:58:01.520Z,11.20
2019-04-23T18:00:34.916Z,11.20
2019-04-23T18:05:30.785Z,11.10
2019-04-23T18:08:05.403Z,11.10
2019-04-23T18:12:57.942Z,11.00
2019-04-23T18:15:25.795Z,10.90
2019-04-23T18:18:02.505Z,10.90
2019-04-23T18:20:56.106Z,10.90
2019-04-23T18:23:14.835Z,10.90
2019-04-23T18:25:58.055Z,10.80
2019-04-23T18:28:19.745Z,10.80
2019-04-23T18:31:10.325Z,10.70
2019-04-23T18:36:14.816Z,10.70
2019-04-23T18:41:10.777Z,10.60
2019-04-23T18:43:51.113Z,10.50
2019-04-23T18:46:35.166Z,10.50
2019-04-23T18:48:52.833Z,10.50
2019-04-23T18:51:27.072Z,10.50
2019-04-23T18:54:11.039Z,10.40
2019-04-23T18:56:29.357Z,10.40
2019-04-23T18:59:04.845Z,10.50
2019-04-23T19:04:19.555Z,10.40
2019-04-23T19:17:35.834Z,10.20
2019-04-23T19:19:40.398Z,10.10
2019-04-23T19:29:44.019Z,10.00
2019-04-23T19:32:30.031Z,9.90
2019-04-23T19:34:39.088Z,9.90
2019-04-23T19:37:43.493Z,9.90
2019-04-23T19:39:45.409Z,9.90
2019-04-23T19:44:47.503Z,9.80
2019-04-23T19:47:17.576Z,9.70
2019-04-23T19:49:45.306Z,9.70
2019-04-23T19:52:12.797Z,9.70
2019-04-23T19:57:19.013Z,9.70
2019-04-23T19:59:50.617Z,9.70
2019-04-23T20:02:37.182Z,9.70
2019-04-23T20:04:56.353Z,9.70
2019-04-23T20:12:25.933Z,9.50
2019-04-23T20:14:52.310Z,9.60
2019-04-23T20:17:37.714Z,9.60
2019-04-23T20:19:58.412Z,9.60
2019-04-23T20:25:18.866Z,9.50
2019-04-23T20:27:25.967Z,9.40
2019-04-23T20:33:36.180Z,9.50
2019-04-23T20:35:25.484Z,9.50
2019-04-23T20:38:25.643Z,9.40
2019-04-23T20:40:31.462Z,9.30
2019-04-23T20:42:57.213Z,9.40
2019-04-23T20:45:33.851Z,9.40
2019-04-23T20:48:01.662Z,9.40
2019-04-23T20:50:26.213Z,9.30
2019-04-23T20:52:51.738Z,9.30
2019-04-23T20:55:45.202Z,9.20
2019-04-23T20:58:20.888Z,9.20
2019-04-23T21:00:59.090Z,9.10
2019-04-23T21:05:50.498Z,9.10
2019-04-23T21:08:30.356Z,9.00
2019-04-23T21:10:51.810Z,9.00
2019-04-23T21:13:42.721Z,9.00
2019-04-23T21:15:54.608Z,9.10
2019-04-23T21:18:33.076Z,9.10
2019-04-23T21:23:45.446Z,9.20
2019-04-23T21:25:52.667Z,9.20
2019-04-23T21:31:16.369Z,9.10
2019-04-23T21:34:03.128Z,9.10
2019-04-23T21:39:18.262Z,9.00
2019-04-23T21:41:52.701Z,9.00
2019-04-23T21:44:18.759Z,9.00
2019-04-23T21:46:48.156Z,9.00
2019-04-23T21:49:17.783Z,9.00
2019-04-23T21:54:07.933Z,9.00
2019-04-23T21:56:44.594Z,9.00
2019-04-23T22:01:44.996Z,8.90
2019-04-23T22:06:48.003Z,9.00
2019-04-23T22:09:22.622Z,9.00
2019-04-23T22:14:16.984Z,9.00
2019-04-23T22:27:05.400Z,9.00
2019-04-23T22:29:45.090Z,9.00
2019-04-23T22:31:52.159Z,9.00
2019-04-23T22:37:07.922Z,9.00
2019-04-23T22:39:31.991Z,9.00
2019-04-23T22:44:39.840Z,9.00
2019-04-23T22:47:04.332Z,9.10
2019-04-23T22:52:16.582Z,9.00
2019-04-23T22:54:51.054Z,9.00
2019-04-23T22:57:11.630Z,9.00
2019-04-23T22:59:54.338Z,9.00
2019-04-23T23:02:26.418Z,8.90
2019-04-23T23:05:06.323Z,9.00
2019-04-23T23:07:28.828Z,8.90
2019-04-23T23:10:02.406Z,9.00
2019-04-23T23:12:31.938Z,9.00
2019-04-23T23:15:01.136Z,9.00
2019-04-23T23:17:32.579Z,9.00
2019-04-23T23:20:05.868Z,8.90
2019-04-23T23:22:27.526Z,9.00
2019-04-23T23:25:04.731Z,9.00
2019-04-23T23:27:29.645Z,9.00
2019-04-23T23:30:05.069Z,9.00
2019-04-23T23:32:31.530Z,9.00
2019-04-23T23:35:16.166Z,9.00
2019-04-23T23:37:28.193Z,9.00
2019-04-23T23:42:34.655Z,9.00
2019-04-23T23:45:10.539Z,9.00
2019-04-23T23:47:29.299Z,9.00
2019-04-23T23:50:16.230Z,9.00
2019-04-23T23:52:42.699Z,9.00
2019-04-23T23:55:07.845Z,9.00
2019-04-23T23:57:33.853Z,9.00
